Weather at Taunton Municipal King Field

Public forecast

Using degrees Fahrenheit for public forecast. Weather courtesy of forecast.io.

Current aviation weather report (METAR) for Taunton Municipal King Field

Retrieved 2020/10/23 10:38 UTC (19 minutes ago):

KTAN 231038Z AUTO 00000KT 2 1/2SM BR OVC002 13/12 A3026 RMK AO2 T01330122

Closest aviation forecast (TAF) to Taunton Municipal King Field

Closest forecast is Theodore Francis Green State Airport, 20.0 nm (37.0 km) WSW. Retrieved 2020/10/23 06:22 UTC (5 hours ago):

TAF KPVD 230520Z 2306/2406 14004KT P6SM OVC011 FM230800 08004KT P6SM OVC008 FM231300 09004KT P6SM SCT025 FM231800 13003KT P6SM SCT060 FM240500 17003KT P6SM BKN008